createdAt,value
2023-05-05T00:00:03.298Z,18.70
2023-05-05T00:02:31.060Z,18.73
2023-05-05T00:04:58.828Z,18.69
2023-05-05T00:07:26.300Z,18.76
2023-05-05T00:09:53.807Z,18.74
2023-05-05T00:12:21.373Z,18.74
2023-05-05T00:14:48.850Z,18.75
2023-05-05T00:17:17.202Z,18.80
2023-05-05T00:19:44.823Z,18.69
2023-05-05T00:22:12.344Z,18.69
2023-05-05T00:24:39.893Z,18.60
2023-05-05T00:27:07.468Z,18.58
2023-05-05T00:29:35.022Z,18.36
2023-05-05T00:32:02.955Z,18.48
2023-05-05T00:34:30.399Z,18.56
2023-05-05T00:36:57.972Z,18.49
2023-05-05T00:39:25.477Z,18.42
2023-05-05T00:41:52.992Z,18.54
2023-05-05T00:44:37.977Z,18.66
2023-05-05T00:47:05.915Z,18.66
2023-05-05T00:49:34.699Z,18.65
2023-05-05T00:52:03.035Z,18.59
2023-05-05T00:54:30.759Z,18.62
2023-05-05T00:56:58.255Z,18.63
2023-05-05T00:59:25.916Z,18.68
2023-05-05T01:01:53.444Z,18.74
2023-05-05T01:04:20.999Z,18.66
2023-05-05T01:07:02.161Z,18.84
2023-05-05T01:10:07.235Z,18.86
2023-05-05T01:13:14.962Z,18.83
2023-05-05T01:15:51.569Z,18.56
2023-05-05T01:18:33.672Z,18.73
2023-05-05T01:21:10.157Z,18.69
2023-05-05T01:23:56.284Z,18.67
2023-05-05T01:26:48.138Z,18.58
2023-05-05T01:29:43.204Z,18.52
2023-05-05T01:32:23.247Z,18.49
2023-05-05T01:35:22.016Z,18.49
2023-05-05T01:38:01.705Z,18.44
2023-05-05T01:40:34.764Z,18.46
2023-05-05T01:43:03.700Z,18.37
2023-05-05T01:45:34.665Z,18.49
2023-05-05T01:48:03.982Z,18.59
2023-05-05T01:50:32.931Z,18.61
2023-05-05T01:53:02.315Z,18.58
2023-05-05T01:55:31.897Z,18.66
2023-05-05T01:58:01.649Z,18.55
2023-05-05T02:00:30.433Z,18.58
2023-05-05T02:02:59.824Z,18.27
2023-05-05T02:05:28.048Z,18.22
2023-05-05T02:07:59.123Z,18.29
2023-05-05T02:10:27.664Z,18.25
2023-05-05T02:12:55.295Z,18.06
2023-05-05T02:15:24.604Z,17.84
2023-05-05T02:17:53.068Z,17.74
2023-05-05T02:20:21.548Z,17.69
2023-05-05T02:22:49.747Z,17.61
2023-05-05T02:25:18.016Z,17.45
2023-05-05T02:27:49.164Z,17.37
2023-05-05T02:30:20.733Z,17.29
2023-05-05T02:32:57.306Z,17.26
2023-05-05T02:35:29.779Z,17.32
2023-05-05T02:38:04.791Z,17.15
2023-05-05T02:40:35.720Z,17.02
2023-05-05T02:43:07.780Z,16.98
2023-05-05T02:45:35.429Z,17.01
2023-05-05T02:48:04.950Z,16.90
2023-05-05T02:50:33.448Z,16.84
2023-05-05T02:53:01.622Z,16.87
2023-05-05T02:55:38.320Z,16.76
2023-05-05T02:58:14.651Z,16.62
2023-05-05T03:00:53.807Z,16.48
2023-05-05T03:03:53.952Z,16.56
2023-05-05T03:06:23.761Z,16.43
2023-05-05T03:08:57.111Z,16.53
2023-05-05T03:11:32.913Z,16.50
2023-05-05T03:14:08.674Z,16.50
2023-05-05T03:16:37.872Z,16.47
2023-05-05T03:19:07.888Z,16.50
2023-05-05T03:21:35.589Z,16.41
2023-05-05T03:24:15.604Z,16.42
2023-05-05T03:26:43.714Z,16.21
2023-05-05T03:29:11.352Z,16.45
2023-05-05T03:31:38.910Z,16.42
2023-05-05T03:34:07.396Z,16.37
2023-05-05T03:36:35.975Z,16.36
2023-05-05T03:39:03.773Z,16.43
2023-05-05T03:41:31.337Z,16.33
2023-05-05T03:43:58.816Z,16.38
2023-05-05T03:46:26.624Z,16.36
2023-05-05T03:48:57.135Z,16.41
2023-05-05T03:51:25.502Z,16.37
2023-05-05T03:53:52.998Z,16.31
2023-05-05T03:56:20.562Z,16.16
2023-05-05T03:58:48.088Z,16.29
2023-05-05T04:01:15.650Z,16.12
2023-05-05T04:03:43.236Z,16.26
2023-05-05T04:06:10.876Z,16.31
2023-05-05T04:08:38.402Z,16.27
2023-05-05T04:11:06.082Z,16.31
2023-05-05T04:13:33.575Z,16.10
2023-05-05T04:16:01.144Z,16.16
2023-05-05T04:18:28.693Z,16.01
2023-05-05T04:20:56.320Z,16.07
2023-05-05T04:23:23.935Z,16.04
2023-05-05T04:25:51.448Z,16.12
2023-05-05T04:28:20.320Z,16.02
2023-05-05T04:30:49.316Z,16.15
2023-05-05T04:33:16.830Z,16.03
2023-05-05T04:35:44.288Z,16.11
2023-05-05T04:38:11.797Z,16.05
2023-05-05T04:40:41.206Z,16.20
2023-05-05T04:43:08.741Z,16.11
2023-05-05T04:45:36.292Z,16.09
2023-05-05T04:48:05.131Z,16.03
2023-05-05T04:50:33.159Z,16.05
2023-05-05T04:53:00.711Z,16.31
2023-05-05T04:55:28.553Z,16.32
2023-05-05T04:57:56.441Z,16.40
2023-05-05T05:00:24.036Z,16.38
2023-05-05T05:02:52.560Z,16.47
2023-05-05T05:05:20.201Z,16.49
2023-05-05T05:07:47.731Z,16.61
2023-05-05T05:10:15.724Z,16.43
2023-05-05T05:12:43.338Z,16.31
2023-05-05T05:15:11.325Z,16.51
2023-05-05T05:17:38.852Z,16.63
2023-05-05T05:20:08.328Z,16.51
2023-05-05T05:22:38.282Z,16.54
2023-05-05T05:25:06.094Z,16.55
2023-05-05T05:27:33.659Z,16.61
2023-05-05T05:30:01.175Z,16.68
2023-05-05T05:32:28.736Z,16.64
2023-05-05T05:34:56.293Z,16.74
2023-05-05T05:37:23.739Z,16.72
2023-05-05T05:39:54.459Z,16.61
2023-05-05T05:42:22.064Z,16.88
2023-05-05T05:44:49.576Z,16.75
2023-05-05T05:47:17.022Z,16.84
2023-05-05T05:49:44.580Z,17.09
2023-05-05T05:52:12.135Z,16.90
2023-05-05T05:54:39.735Z,17.07
2023-05-05T05:57:07.321Z,17.06
2023-05-05T05:59:34.986Z,17.13
2023-05-05T06:02:03.318Z,17.22
2023-05-05T06:04:31.703Z,17.31
2023-05-05T06:06:59.349Z,17.35
2023-05-05T06:09:26.954Z,17.42
2023-05-05T06:11:54.566Z,17.38
2023-05-05T06:14:22.081Z,17.52
2023-05-05T06:16:49.592Z,17.35
2023-05-05T06:19:17.079Z,17.65
2023-05-05T06:21:44.631Z,17.55
2023-05-05T06:24:12.227Z,17.89
2023-05-05T06:26:39.877Z,17.99
2023-05-05T06:29:07.575Z,17.87
2023-05-05T06:31:35.109Z,17.82
2023-05-05T06:34:02.892Z,18.15
2023-05-05T06:36:30.399Z,18.19
2023-05-05T06:38:57.909Z,18.23
2023-05-05T06:41:25.482Z,18.11
2023-05-05T06:43:53.054Z,18.40
2023-05-05T06:46:20.632Z,18.54
2023-05-05T06:48:48.286Z,18.68
2023-05-05T06:51:16.187Z,18.79
2023-05-05T06:53:43.709Z,18.87
2023-05-05T06:56:11.398Z,18.82
2023-05-05T06:58:39.001Z,19.03
2023-05-05T07:01:07.028Z,18.90
2023-05-05T07:03:34.571Z,18.76
2023-05-05T07:06:02.231Z,19.22
2023-05-05T07:08:29.706Z,19.33
2023-05-05T07:10:57.248Z,19.38
2023-05-05T07:13:24.746Z,19.52
2023-05-05T07:15:52.333Z,20.04
2023-05-05T07:18:20.477Z,20.19
2023-05-05T07:20:48.534Z,20.34
2023-05-05T07:23:16.217Z,20.55
2023-05-05T07:25:43.980Z,20.76
2023-05-05T07:28:11.954Z,20.72
2023-05-05T07:30:39.458Z,20.68
2023-05-05T07:33:07.062Z,20.75
2023-05-05T07:35:34.669Z,20.75
2023-05-05T07:38:02.194Z,20.83
2023-05-05T07:40:29.740Z,20.87
2023-05-05T07:42:57.234Z,20.71
2023-05-05T07:45:24.740Z,21.21
2023-05-05T07:47:52.317Z,21.23
2023-05-05T07:50:20.526Z,21.11
2023-05-05T07:52:56.164Z,21.48
2023-05-05T07:55:29.824Z,21.31
2023-05-05T07:57:57.308Z,21.33
2023-05-05T08:00:24.875Z,21.68
2023-05-05T08:02:52.477Z,21.57
2023-05-05T08:05:20.127Z,21.77
2023-05-05T08:07:47.857Z,21.49
2023-05-05T08:10:15.398Z,22.13
2023-05-05T08:12:42.945Z,21.66
2023-05-05T08:15:11.652Z,22.01
2023-05-05T08:17:50.830Z,22.44
2023-05-05T08:20:19.579Z,22.02
2023-05-05T08:22:47.587Z,22.19
2023-05-05T08:25:15.557Z,22.75
2023-05-05T08:27:43.603Z,23.75
2023-05-05T08:30:11.901Z,23.82
2023-05-05T08:32:39.729Z,23.50
2023-05-05T08:35:08.315Z,23.40
2023-05-05T08:37:36.107Z,23.25
2023-05-05T08:40:03.700Z,23.07
2023-05-05T08:42:38.193Z,22.67
2023-05-05T08:45:08.787Z,22.75
2023-05-05T08:47:37.700Z,22.49
2023-05-05T08:50:06.675Z,22.73
2023-05-05T08:52:46.187Z,22.92
2023-05-05T08:55:25.466Z,22.83
2023-05-05T08:57:55.984Z,22.46
2023-05-05T09:00:24.580Z,22.86
2023-05-05T09:02:52.860Z,23.61
2023-05-05T09:05:20.610Z,23.00
2023-05-05T09:07:48.924Z,23.18
2023-05-05T09:10:16.558Z,23.18
2023-05-05T09:12:44.357Z,23.08
2023-05-05T09:15:16.323Z,22.91
2023-05-05T09:17:43.884Z,22.99
2023-05-05T09:20:13.312Z,22.69
2023-05-05T09:22:41.731Z,22.94
2023-05-05T09:25:19.364Z,22.95
2023-05-05T09:27:49.327Z,22.83
2023-05-05T09:30:19.070Z,22.72
2023-05-05T09:32:54.842Z,22.52
2023-05-05T09:35:23.680Z,22.32
2023-05-05T09:37:51.289Z,21.63
2023-05-05T09:40:20.539Z,20.46
2023-05-05T09:42:48.871Z,19.88
2023-05-05T09:45:19.228Z,19.49
2023-05-05T09:47:48.064Z,19.16
2023-05-05T09:50:18.673Z,18.45
2023-05-05T09:53:03.094Z,18.54
2023-05-05T09:55:32.013Z,18.28
2023-05-05T09:58:18.535Z,18.15
2023-05-05T10:00:46.563Z,18.51
2023-05-05T10:03:14.360Z,18.65
2023-05-05T10:05:59.564Z,18.41
2023-05-05T10:08:31.455Z,18.57
2023-05-05T10:11:06.378Z,18.61
2023-05-05T10:13:38.459Z,18.90
2023-05-05T10:16:09.856Z,18.86
2023-05-05T10:18:40.048Z,18.82
2023-05-05T10:21:08.935Z,18.88
2023-05-05T10:23:45.000Z,19.07
2023-05-05T10:26:14.841Z,18.97
2023-05-05T10:28:46.826Z,18.88
2023-05-05T10:31:47.208Z,18.87
2023-05-05T10:34:24.815Z,18.65
2023-05-05T10:36:53.624Z,18.53
2023-05-05T10:39:22.084Z,18.47
2023-05-05T10:41:50.972Z,18.37
2023-05-05T10:44:19.094Z,18.26
2023-05-05T10:46:47.742Z,18.41
2023-05-05T10:49:23.498Z,18.12
2023-05-05T10:52:01.634Z,18.11
2023-05-05T10:54:46.632Z,18.08
2023-05-05T10:57:17.567Z,17.78
2023-05-05T10:59:45.268Z,17.74
2023-05-05T11:02:24.921Z,17.77
2023-05-05T11:05:08.194Z,17.97
2023-05-05T11:07:35.997Z,18.03
2023-05-05T11:10:06.347Z,17.75
2023-05-05T11:12:54.702Z,17.76
2023-05-05T11:15:25.009Z,17.87
2023-05-05T11:17:53.456Z,17.61
2023-05-05T11:20:36.265Z,17.67
2023-05-05T11:23:03.717Z,17.74
2023-05-05T11:25:38.135Z,17.62
2023-05-05T11:28:12.992Z,17.64
2023-05-05T11:31:10.012Z,17.50
2023-05-05T11:33:40.713Z,17.30
2023-05-05T11:36:10.397Z,17.41
2023-05-05T11:38:49.728Z,17.39
2023-05-05T11:41:32.209Z,17.40
2023-05-05T11:44:21.910Z,17.38
2023-05-05T11:46:52.555Z,17.30
2023-05-05T11:49:34.037Z,17.54
2023-05-05T11:52:02.633Z,17.48
2023-05-05T11:54:31.533Z,17.53
2023-05-05T11:57:01.974Z,17.50
2023-05-05T11:59:29.536Z,17.53
2023-05-05T12:01:57.132Z,17.62
2023-05-05T12:04:24.850Z,17.72
2023-05-05T12:06:52.464Z,17.71
2023-05-05T12:09:22.225Z,17.91
2023-05-05T12:11:53.634Z,18.04
2023-05-05T12:14:22.119Z,17.78
2023-05-05T12:16:56.461Z,17.87
2023-05-05T12:19:24.334Z,17.71
2023-05-05T12:21:54.174Z,17.83
2023-05-05T12:24:21.906Z,17.80
2023-05-05T12:26:49.419Z,17.76
2023-05-05T12:29:30.635Z,17.75
2023-05-05T12:32:00.211Z,17.40
2023-05-05T12:34:27.869Z,17.73
2023-05-05T12:36:55.687Z,17.40
2023-05-05T12:39:23.160Z,17.48
2023-05-05T12:41:50.978Z,17.36
2023-05-05T12:44:18.550Z,17.38
2023-05-05T12:46:47.426Z,17.28
2023-05-05T12:49:15.567Z,17.33
2023-05-05T12:51:57.206Z,17.38
2023-05-05T12:54:25.119Z,17.48
2023-05-05T12:56:52.641Z,17.47
2023-05-05T12:59:23.117Z,17.46
2023-05-05T13:01:55.543Z,17.53
2023-05-05T13:04:24.923Z,17.29
2023-05-05T13:07:12.355Z,17.24
2023-05-05T13:09:40.084Z,17.27
2023-05-05T13:12:11.596Z,17.17
2023-05-05T13:14:39.885Z,17.38
2023-05-05T13:17:07.811Z,17.19
2023-05-05T13:19:41.618Z,17.35
2023-05-05T13:22:10.999Z,17.37
2023-05-05T13:24:50.936Z,17.24
2023-05-05T13:27:20.528Z,17.11
2023-05-05T13:29:48.451Z,16.93
2023-05-05T13:32:15.949Z,16.85
2023-05-05T13:37:13.723Z,16.69
2023-05-05T13:39:41.317Z,16.92
2023-05-05T13:42:08.886Z,16.99
2023-05-05T13:44:36.388Z,17.10
2023-05-05T13:47:04.095Z,16.94
2023-05-05T13:49:31.733Z,16.78
2023-05-05T13:51:59.309Z,16.71
2023-05-05T13:54:27.014Z,16.68
2023-05-05T13:56:54.719Z,16.60
2023-05-05T13:59:22.289Z,16.68
2023-05-05T14:01:50.093Z,16.57
2023-05-05T14:04:17.657Z,16.50
2023-05-05T14:06:45.216Z,16.67
2023-05-05T14:09:13.186Z,16.47
2023-05-05T14:11:41.134Z,16.61
2023-05-05T14:14:08.703Z,16.76
2023-05-05T14:16:36.307Z,17.02
2023-05-05T14:19:04.081Z,16.39
2023-05-05T14:21:32.700Z,16.54
2023-05-05T14:24:00.199Z,16.74
2023-05-05T14:26:28.153Z,16.28
2023-05-05T14:28:55.800Z,16.96
2023-05-05T14:31:23.472Z,17.15
2023-05-05T14:33:51.037Z,17.54
2023-05-05T14:36:18.584Z,17.71
2023-05-05T14:38:46.200Z,17.85
2023-05-05T14:41:13.765Z,17.92
2023-05-05T14:43:41.339Z,17.83
2023-05-05T14:46:08.927Z,17.81
2023-05-05T14:48:36.616Z,17.99
2023-05-05T14:51:04.757Z,17.87
2023-05-05T14:53:32.490Z,18.23
2023-05-05T14:55:59.984Z,18.28
2023-05-05T14:58:27.538Z,18.50
2023-05-05T15:00:55.075Z,18.58
2023-05-05T15:03:22.736Z,18.69
2023-05-05T15:05:50.396Z,18.76
2023-05-05T15:08:19.144Z,18.77
2023-05-05T15:10:47.450Z,19.04
2023-05-05T15:13:15.342Z,18.76
2023-05-05T15:15:42.977Z,18.63
2023-05-05T15:18:10.510Z,18.75
2023-05-05T15:20:38.196Z,18.83
2023-05-05T15:23:05.754Z,19.15
2023-05-05T15:25:33.275Z,19.41
2023-05-05T15:28:00.974Z,19.38
2023-05-05T15:30:28.708Z,19.16
2023-05-05T15:32:56.429Z,19.14
2023-05-05T15:35:25.433Z,19.02
2023-05-05T15:37:54.538Z,18.88
2023-05-05T15:40:22.199Z,18.96
2023-05-05T15:42:49.829Z,19.15
2023-05-05T15:45:18.086Z,19.37
2023-05-05T15:47:45.942Z,19.73
2023-05-05T15:50:14.055Z,19.44
2023-05-05T15:52:41.643Z,19.79
2023-05-05T15:55:11.218Z,19.99
2023-05-05T15:57:40.415Z,19.34
2023-05-05T16:00:09.529Z,19.19
2023-05-05T16:02:37.149Z,19.10
2023-05-05T16:05:04.895Z,18.77
2023-05-05T16:07:32.574Z,18.82
2023-05-05T16:10:00.121Z,19.08
2023-05-05T16:12:27.814Z,18.97
2023-05-05T16:14:55.672Z,18.85
2023-05-05T16:17:23.485Z,18.97
2023-05-05T16:19:51.089Z,19.15
2023-05-05T16:22:18.718Z,18.67
2023-05-05T16:24:46.919Z,18.74
2023-05-05T16:27:15.127Z,18.87
2023-05-05T16:29:42.752Z,18.92
2023-05-05T16:32:10.306Z,19.04
2023-05-05T16:34:37.908Z,19.01
2023-05-05T16:37:05.414Z,18.58
2023-05-05T16:39:34.008Z,18.81
2023-05-05T16:42:02.799Z,18.78
2023-05-05T16:44:30.585Z,19.03
2023-05-05T16:46:58.309Z,18.84
2023-05-05T16:49:26.029Z,18.77
2023-05-05T16:51:53.607Z,18.67
2023-05-05T16:54:21.218Z,18.57
2023-05-05T16:56:48.884Z,18.50
2023-05-05T16:59:18.320Z,18.47
2023-05-05T17:01:46.800Z,18.33
2023-05-05T17:04:14.562Z,18.58
2023-05-05T17:06:42.086Z,18.51
2023-05-05T17:09:09.843Z,18.49
2023-05-05T17:11:37.368Z,18.37
2023-05-05T17:14:04.980Z,18.43
2023-05-05T17:16:32.707Z,18.19
2023-05-05T17:19:00.555Z,18.45
2023-05-05T17:21:28.041Z,18.36
2023-05-05T17:23:55.610Z,18.51
2023-05-05T17:26:23.129Z,18.70
2023-05-05T17:28:50.657Z,18.67
2023-05-05T17:31:18.243Z,18.76
2023-05-05T17:33:45.791Z,18.68
2023-05-05T17:36:13.384Z,18.83
2023-05-05T17:38:40.866Z,18.63
2023-05-05T17:41:08.482Z,18.85
2023-05-05T17:43:35.995Z,19.00
2023-05-05T17:46:03.556Z,19.06
2023-05-05T17:48:31.090Z,18.91
2023-05-05T17:50:58.647Z,18.73
2023-05-05T17:53:26.402Z,18.85
2023-05-05T17:55:54.473Z,18.84
2023-05-05T17:58:22.025Z,18.81
2023-05-05T18:00:49.623Z,18.77
2023-05-05T18:03:17.276Z,18.72
2023-05-05T18:05:44.964Z,18.65
2023-05-05T18:08:12.647Z,18.66
2023-05-05T18:10:40.135Z,18.64
2023-05-05T18:13:07.880Z,18.63
2023-05-05T18:15:35.703Z,18.57
2023-05-05T18:18:03.290Z,18.31
2023-05-05T18:20:30.882Z,18.44
2023-05-05T18:22:58.395Z,18.18
2023-05-05T18:25:26.222Z,18.14
2023-05-05T18:27:53.703Z,18.19
2023-05-05T18:30:21.309Z,18.22
2023-05-05T18:32:48.985Z,18.10
2023-05-05T18:35:16.641Z,17.95
2023-05-05T18:37:44.184Z,17.86
2023-05-05T18:40:12.141Z,17.89
2023-05-05T18:42:39.618Z,17.87
2023-05-05T18:45:07.896Z,17.73
2023-05-05T18:47:38.322Z,17.70
2023-05-05T18:50:07.139Z,17.61
2023-05-05T18:52:35.053Z,17.61
2023-05-05T18:55:02.600Z,17.39
2023-05-05T18:57:30.387Z,17.11
2023-05-05T18:59:57.910Z,17.16
2023-05-05T19:02:25.492Z,17.14
2023-05-05T19:04:53.078Z,17.21
2023-05-05T19:07:33.712Z,17.10
2023-05-05T19:10:02.717Z,17.01
2023-05-05T19:12:30.220Z,17.03
2023-05-05T19:14:57.747Z,16.89
2023-05-05T19:17:25.537Z,16.82
2023-05-05T19:19:53.122Z,16.89
2023-05-05T19:22:21.827Z,16.87
2023-05-05T19:24:49.588Z,16.81
2023-05-05T19:27:17.388Z,16.71
2023-05-05T19:29:45.207Z,16.53
2023-05-05T19:32:12.979Z,16.68
2023-05-05T19:34:42.261Z,16.65
2023-05-05T19:37:09.865Z,16.45
2023-05-05T19:39:37.652Z,16.53
2023-05-05T19:42:05.366Z,16.54
2023-05-05T19:44:32.870Z,16.49
2023-05-05T19:47:00.408Z,16.49
2023-05-05T19:49:27.933Z,16.37
2023-05-05T19:51:56.906Z,16.33
2023-05-05T19:54:24.669Z,16.30
2023-05-05T19:56:53.708Z,16.28
2023-05-05T19:59:22.073Z,16.23
2023-05-05T20:01:49.827Z,16.12
2023-05-05T20:04:17.428Z,16.12
2023-05-05T20:06:44.973Z,16.15
2023-05-05T20:09:12.464Z,16.08
2023-05-05T20:11:39.969Z,16.04
2023-05-05T20:14:07.524Z,16.04
2023-05-05T20:16:35.044Z,15.99
2023-05-05T20:19:02.903Z,15.97
2023-05-05T20:21:31.036Z,15.94
2023-05-05T20:23:59.629Z,15.97
2023-05-05T20:26:27.230Z,15.96
2023-05-05T20:28:54.686Z,15.93
2023-05-05T20:31:22.250Z,15.79
2023-05-05T20:33:49.791Z,15.82
2023-05-05T20:36:18.889Z,15.85
2023-05-05T20:38:46.357Z,15.90
2023-05-05T20:41:13.822Z,15.85
2023-05-05T20:43:41.340Z,15.69
2023-05-05T20:46:13.043Z,15.64
2023-05-05T20:48:42.884Z,15.66
2023-05-05T20:51:10.687Z,15.67
2023-05-05T20:53:38.185Z,15.67
2023-05-05T20:56:07.978Z,15.64
2023-05-05T20:58:36.293Z,15.57
2023-05-05T21:01:03.920Z,15.45
2023-05-05T21:03:31.627Z,15.42
2023-05-05T21:05:59.104Z,15.43
2023-05-05T21:08:26.848Z,15.28
2023-05-05T21:10:54.382Z,15.26
2023-05-05T21:13:21.919Z,15.22
2023-05-05T21:15:50.534Z,15.17
2023-05-05T21:18:18.112Z,15.16
2023-05-05T21:20:45.651Z,15.17
2023-05-05T21:23:13.231Z,15.08
2023-05-05T21:25:40.760Z,15.05
2023-05-05T21:28:08.279Z,15.14
2023-05-05T21:30:35.817Z,15.11
2023-05-05T21:33:03.391Z,15.07
2023-05-05T21:35:30.986Z,14.92
2023-05-05T21:37:58.498Z,15.01
2023-05-05T21:40:25.995Z,14.88
2023-05-05T21:42:53.511Z,14.99
2023-05-05T21:45:21.225Z,14.93
2023-05-05T21:47:48.741Z,14.83
2023-05-05T21:50:16.227Z,14.86
2023-05-05T21:52:43.714Z,14.84
2023-05-05T21:55:11.353Z,14.76
2023-05-05T21:57:38.855Z,14.77
2023-05-05T22:00:08.534Z,14.77
2023-05-05T22:02:36.489Z,14.71
2023-05-05T22:05:04.107Z,14.75
2023-05-05T22:07:32.944Z,14.83
2023-05-05T22:10:01.475Z,14.83
2023-05-05T22:12:29.065Z,14.86
2023-05-05T22:14:56.635Z,14.92
2023-05-05T22:17:24.247Z,14.86
2023-05-05T22:19:51.815Z,14.83
2023-05-05T22:22:19.348Z,14.75
2023-05-05T22:24:46.878Z,14.81
2023-05-05T22:27:14.427Z,14.82
2023-05-05T22:29:41.947Z,14.89
2023-05-05T22:32:09.473Z,14.95
2023-05-05T22:34:37.044Z,14.94
2023-05-05T22:37:04.775Z,14.79
2023-05-05T22:39:33.167Z,14.80
2023-05-05T22:42:00.933Z,14.76
2023-05-05T22:44:28.432Z,14.79
2023-05-05T22:46:56.074Z,14.69
2023-05-05T22:49:24.263Z,14.72
2023-05-05T22:51:52.130Z,14.70
2023-05-05T22:54:19.825Z,14.76
2023-05-05T22:56:47.621Z,14.82
2023-05-05T22:59:15.124Z,14.82
2023-05-05T23:01:42.908Z,14.79
2023-05-05T23:04:10.479Z,14.74
2023-05-05T23:06:39.618Z,14.81
2023-05-05T23:09:07.579Z,14.75
2023-05-05T23:11:35.047Z,14.76
2023-05-05T23:14:02.567Z,14.75
2023-05-05T23:16:30.116Z,14.78
2023-05-05T23:18:57.714Z,14.75
2023-05-05T23:21:25.270Z,14.71
2023-05-05T23:23:52.792Z,14.72
2023-05-05T23:26:20.247Z,14.78
2023-05-05T23:28:47.766Z,14.76
2023-05-05T23:31:15.301Z,14.83
2023-05-05T23:33:42.908Z,14.81
2023-05-05T23:36:10.422Z,14.58
2023-05-05T23:38:38.144Z,14.81
2023-05-05T23:41:06.283Z,14.72
2023-05-05T23:43:33.751Z,14.83
2023-05-05T23:46:01.261Z,14.75
2023-05-05T23:48:28.736Z,14.90
2023-05-05T23:50:56.284Z,14.84
2023-05-05T23:53:23.977Z,14.82
2023-05-05T23:55:51.420Z,14.90
2023-05-05T23:58:18.905Z,14.71
